createdAt,value
2023-04-11T00:00:30.527Z,100188.34
2023-04-11T00:03:00.102Z,100186.59
2023-04-11T00:05:28.524Z,100192.75
2023-04-11T00:07:54.925Z,100191.03
2023-04-11T00:10:21.382Z,100204.16
2023-04-11T00:12:47.805Z,100196.34
2023-04-11T00:15:16.202Z,100182.38
2023-04-11T00:17:45.703Z,100189.41
2023-04-11T00:20:13.023Z,100180.63
2023-04-11T00:22:39.556Z,100173.75
2023-04-11T00:25:07.051Z,100186.81
2023-04-11T00:27:33.554Z,100181.59
2023-04-11T00:30:00.823Z,100187.75
2023-04-11T00:32:27.620Z,100177.25
2023-04-11T00:34:54.112Z,100181.81
2023-04-11T00:37:23.166Z,100187.84
2023-04-11T00:39:50.546Z,100173.81
2023-04-11T00:42:17.277Z,100178.16
2023-04-11T00:44:43.740Z,100172.03
2023-04-11T00:47:10.367Z,100173.72
2023-04-11T00:49:37.451Z,100175.53
2023-04-11T00:52:05.838Z,100181.72
2023-04-11T00:54:33.098Z,100171.31
2023-04-11T00:57:04.662Z,100171.16
2023-04-11T00:59:32.611Z,100182.53
2023-04-11T01:01:59.963Z,100190.28
2023-04-11T01:04:26.511Z,100180.63
2023-04-11T01:06:58.515Z,100181.59
2023-04-11T01:09:28.697Z,100191.19
2023-04-11T01:11:56.171Z,100176.31
2023-04-11T01:14:24.021Z,100172.88
2023-04-11T01:16:50.742Z,100171.97
2023-04-11T01:19:21.626Z,100163.31
2023-04-11T01:21:50.519Z,100166.75
2023-04-11T01:24:16.997Z,100172.94
2023-04-11T01:26:43.546Z,100165.97
2023-04-11T01:29:10.338Z,100171.25
2023-04-11T01:31:36.984Z,100176.53
2023-04-11T01:34:04.959Z,100164.38
2023-04-11T01:36:32.219Z,100162.66
2023-04-11T01:38:58.741Z,100162.59
2023-04-11T01:41:26.700Z,100158.31
2023-04-11T01:43:53.258Z,100167.09
2023-04-11T01:46:19.881Z,100154.03
2023-04-11T01:48:46.424Z,100165.41
2023-04-11T01:51:12.922Z,100159.34
2023-04-11T01:53:39.384Z,100171.56
2023-04-11T01:56:06.545Z,100170.69
2023-04-11T01:58:33.046Z,100176.81
2023-04-11T02:00:59.531Z,100184.66
2023-04-11T02:03:26.250Z,100181.13
2023-04-11T02:05:52.886Z,100187.31
2023-04-11T02:08:19.312Z,100187.34
2023-04-11T02:10:45.770Z,100191.75
2023-04-11T02:13:12.273Z,100192.63
2023-04-11T02:15:38.745Z,100190.03
2023-04-11T02:18:05.548Z,100197.88
2023-04-11T02:20:32.048Z,100193.56
2023-04-11T02:22:58.938Z,100198.84
2023-04-11T02:25:25.435Z,100198.00
2023-04-11T02:27:51.883Z,100192.88
2023-04-11T02:30:18.402Z,100192.88
2023-04-11T02:32:46.494Z,100192.91
2023-04-11T02:35:13.001Z,100198.16
2023-04-11T02:37:39.527Z,100197.34
2023-04-11T02:40:06.938Z,100206.09
2023-04-11T02:42:33.718Z,100204.41
2023-04-11T02:45:00.381Z,100200.94
2023-04-11T02:47:26.989Z,100213.13
2023-04-11T02:49:53.528Z,100217.50
2023-04-11T02:52:20.000Z,100216.78
2023-04-11T02:54:46.671Z,100226.41
2023-04-11T02:57:13.180Z,100236.84
2023-04-11T02:59:39.667Z,100230.84
2023-04-11T03:02:06.323Z,100228.28
2023-04-11T03:04:32.873Z,100219.59
2023-04-11T03:06:59.320Z,100222.25
2023-04-11T03:09:26.049Z,100228.41
2023-04-11T03:11:52.488Z,100230.19
2023-04-11T03:14:18.979Z,100228.44
2023-04-11T03:16:45.555Z,100231.09
2023-04-11T03:19:12.022Z,100225.00
2023-04-11T03:21:38.433Z,100232.91
2023-04-11T03:24:05.291Z,100233.81
2023-04-11T03:26:32.214Z,100224.31
2023-04-11T03:28:59.016Z,100231.28
2023-04-11T03:31:25.830Z,100227.00
2023-04-11T03:33:52.405Z,100219.19
2023-04-11T03:36:18.931Z,100228.81
2023-04-11T03:38:45.384Z,100228.91
2023-04-11T03:41:11.902Z,100230.69
2023-04-11T03:43:38.328Z,100238.59
2023-04-11T03:46:05.033Z,100233.38
2023-04-11T03:48:31.556Z,100240.34
2023-04-11T03:50:58.074Z,100252.59
2023-04-11T03:53:24.570Z,100239.56
2023-04-11T03:55:52.814Z,100256.13
2023-04-11T03:58:19.267Z,100252.66
2023-04-11T04:00:46.528Z,100252.66
2023-04-11T04:03:13.805Z,100257.00
2023-04-11T04:05:41.301Z,100271.78
2023-04-11T04:08:07.956Z,100266.59
2023-04-11T04:10:34.414Z,100257.94
2023-04-11T04:13:00.919Z,100258.00
2023-04-11T04:15:27.353Z,100264.13
2023-04-11T04:17:53.926Z,100263.22
2023-04-11T04:20:20.603Z,100263.31
2023-04-11T04:22:47.416Z,100269.44
2023-04-11T04:25:15.725Z,100273.84
2023-04-11T04:27:44.437Z,100264.31
2023-04-11T04:30:15.630Z,100266.06
2023-04-11T04:32:44.051Z,100273.03
2023-04-11T04:35:11.670Z,100271.31
2023-04-11T04:37:39.600Z,100271.31
2023-04-11T04:40:12.074Z,100274.75
2023-04-11T04:42:41.511Z,100288.69
2023-04-11T04:45:09.093Z,100290.41
2023-04-11T04:47:37.434Z,100282.56
2023-04-11T04:50:04.326Z,100283.50
2023-04-11T04:52:30.859Z,100285.25
2023-04-11T04:54:58.360Z,100295.63
2023-04-11T04:57:33.766Z,100296.50
2023-04-11T05:00:00.329Z,100293.91
2023-04-11T05:02:27.108Z,100302.59
2023-04-11T05:04:54.304Z,100300.81
2023-04-11T05:07:20.882Z,100313.00
2023-04-11T05:09:47.672Z,100314.75
2023-04-11T05:12:16.014Z,100313.03
2023-04-11T05:14:42.881Z,100308.66
2023-04-11T05:17:09.386Z,100315.59
2023-04-11T05:19:36.040Z,100323.47
2023-04-11T05:22:02.531Z,100323.47
2023-04-11T05:24:28.970Z,100326.97
2023-04-11T05:26:56.541Z,100324.34
2023-04-11T05:29:23.088Z,100335.66
2023-04-11T05:31:49.572Z,100333.97
2023-04-11T05:34:16.024Z,100337.44
2023-04-11T05:36:42.893Z,100347.06
2023-04-11T05:39:09.387Z,100340.13
2023-04-11T05:41:35.980Z,100352.31
2023-04-11T05:44:02.395Z,100346.22
2023-04-11T05:46:29.585Z,100350.59
2023-04-11T05:48:57.996Z,100351.47
2023-04-11T05:51:24.577Z,100354.09
2023-04-11T05:53:51.020Z,100369.03
2023-04-11T05:56:17.663Z,100381.41
2023-04-11T05:58:44.349Z,100375.47
2023-04-11T06:01:18.203Z,100370.25
2023-04-11T06:03:48.387Z,100381.59
2023-04-11T06:06:15.134Z,100379.84
2023-04-11T06:08:41.705Z,100385.09
2023-04-11T06:11:08.343Z,100389.44
2023-04-11T06:13:34.814Z,100395.53
2023-04-11T06:16:01.744Z,100396.34
2023-04-11T06:18:28.230Z,100406.75
2023-04-11T06:20:54.648Z,100405.88
2023-04-11T06:23:21.375Z,100408.38
2023-04-11T06:25:47.808Z,100412.69
2023-04-11T06:28:14.333Z,100415.22
2023-04-11T06:30:41.419Z,100415.16
2023-04-11T06:33:07.947Z,100436.00
2023-04-11T06:35:34.804Z,100425.53
2023-04-11T06:38:01.207Z,100436.84
2023-04-11T06:40:27.685Z,100435.91
2023-04-11T06:42:55.249Z,100448.03
2023-04-11T06:45:21.677Z,100435.84
2023-04-11T06:47:49.825Z,100446.25
2023-04-11T06:50:16.396Z,100454.09
2023-04-11T06:52:42.865Z,100456.69
2023-04-11T06:55:10.080Z,100464.47
2023-04-11T06:57:36.509Z,100463.53
2023-04-11T07:00:06.951Z,100460.91
2023-04-11T07:02:35.726Z,100462.53
2023-04-11T07:05:03.334Z,100462.50
2023-04-11T07:07:29.801Z,100463.31
2023-04-11T07:09:56.353Z,100466.78
2023-04-11T07:12:22.930Z,100471.09
2023-04-11T07:14:49.385Z,100476.31
2023-04-11T07:17:15.810Z,100478.03
2023-04-11T07:19:42.304Z,100490.28
2023-04-11T07:22:08.895Z,100482.41
2023-04-11T07:24:35.562Z,100483.28
2023-04-11T07:27:02.091Z,100486.66
2023-04-11T07:29:28.912Z,100488.34
2023-04-11T07:31:55.566Z,100487.44
2023-04-11T07:34:22.098Z,100500.41
2023-04-11T07:36:50.042Z,100490.78
2023-04-11T07:39:16.794Z,100488.94
2023-04-11T07:41:43.302Z,100493.19
2023-04-11T07:44:09.811Z,100509.78
2023-04-11T07:46:36.292Z,100506.28
2023-04-11T07:49:02.869Z,100501.06
2023-04-11T07:51:29.433Z,100502.00
2023-04-11T07:53:56.069Z,100509.78
2023-04-11T07:56:22.895Z,100512.28
2023-04-11T07:58:49.721Z,100508.78
2023-04-11T08:01:20.990Z,100504.41
2023-04-11T08:03:47.596Z,100515.66
2023-04-11T08:06:14.370Z,100518.25
2023-04-11T08:08:41.118Z,100504.38
2023-04-11T08:11:07.854Z,100501.56
2023-04-11T08:13:34.344Z,100503.16
2023-04-11T08:16:01.046Z,100516.84
2023-04-11T08:18:27.512Z,100513.19
2023-04-11T08:20:53.946Z,100511.38
2023-04-11T08:23:21.607Z,100506.34
2023-04-11T08:25:48.085Z,100528.09
2023-04-11T08:28:15.189Z,100521.13
2023-04-11T08:30:42.085Z,100526.44
2023-04-11T08:33:10.051Z,100530.84
2023-04-11T08:35:37.639Z,100527.19
2023-04-11T08:38:04.142Z,100535.81
2023-04-11T08:40:30.759Z,100520.75
2023-04-11T08:43:01.154Z,100515.41
2023-04-11T08:45:27.860Z,100539.66
2023-04-11T08:47:55.007Z,100524.03
2023-04-11T08:50:21.558Z,100534.38
2023-04-11T08:52:49.696Z,100544.88
2023-04-11T08:55:16.385Z,100521.34
2023-04-11T08:57:43.307Z,100553.59
2023-04-11T09:00:19.061Z,100545.03
2023-04-11T09:03:03.690Z,100537.22
2023-04-11T09:05:32.403Z,100550.28
2023-04-11T09:08:04.136Z,100544.91
2023-04-11T09:10:30.612Z,100554.31
2023-04-11T09:12:57.264Z,100558.50
2023-04-11T09:15:29.239Z,100544.47
2023-04-11T09:18:00.307Z,100548.03
2023-04-11T09:20:30.192Z,100546.34
2023-04-11T09:22:58.936Z,100558.50
2023-04-11T09:25:25.455Z,100541.03
2023-04-11T09:28:08.412Z,100537.50
2023-04-11T09:30:35.001Z,100550.47
2023-04-11T09:33:18.510Z,100548.81
2023-04-11T09:35:47.852Z,100542.69
2023-04-11T09:38:14.428Z,100541.63
2023-04-11T09:40:44.223Z,100558.91
2023-04-11T09:43:10.697Z,100539.56
2023-04-11T09:45:47.594Z,100535.88
2023-04-11T09:48:21.162Z,100544.56
2023-04-11T09:50:51.679Z,100545.59
2023-04-11T09:53:18.375Z,100547.34
2023-04-11T09:55:44.919Z,100553.44
2023-04-11T09:58:12.781Z,100549.91
2023-04-11T10:00:41.156Z,100548.03
2023-04-11T10:03:07.654Z,100539.00
2023-04-11T10:05:34.786Z,100547.59
2023-04-11T10:08:13.779Z,100552.88
2023-04-11T10:10:43.762Z,100564.34
2023-04-11T10:13:35.389Z,100564.50
2023-04-11T10:16:13.445Z,100559.38
2023-04-11T10:18:52.098Z,100576.09
2023-04-11T10:21:27.583Z,100567.94
2023-04-11T10:24:17.773Z,100583.63
2023-04-11T10:26:49.665Z,100588.91
2023-04-11T10:29:28.685Z,100611.66
2023-04-11T10:32:11.545Z,100578.19
2023-04-11T10:34:40.043Z,100589.03
2023-04-11T10:37:10.315Z,100582.00
2023-04-11T10:39:52.099Z,100585.66
2023-04-11T10:42:33.242Z,100586.84
2023-04-11T10:45:18.129Z,100584.13
2023-04-11T10:48:05.493Z,100596.09
2023-04-11T10:50:32.040Z,100578.59
2023-04-11T10:53:00.961Z,100575.91
2023-04-11T10:55:29.370Z,100576.50
2023-04-11T10:58:22.483Z,100570.13
2023-04-11T11:00:52.302Z,100600.56
2023-04-11T11:03:21.332Z,100573.53
2023-04-11T11:05:56.936Z,100564.75
2023-04-11T11:08:49.715Z,100566.97
2023-04-11T11:11:16.570Z,100562.03
2023-04-11T11:13:53.585Z,100567.16
2023-04-11T11:16:25.445Z,100577.53
2023-04-11T11:18:54.036Z,100569.91
2023-04-11T11:21:27.751Z,100557.78
2023-04-11T11:23:55.738Z,100573.41
2023-04-11T11:26:22.568Z,100577.84
2023-04-11T11:28:49.126Z,100570.38
2023-04-11T11:31:15.570Z,100573.66
2023-04-11T11:33:42.623Z,100565.28
2023-04-11T11:36:09.751Z,100567.72
2023-04-11T11:38:36.491Z,100566.16
2023-04-11T11:41:05.804Z,100568.72
2023-04-11T11:43:36.319Z,100576.16
2023-04-11T11:46:14.869Z,100571.22
2023-04-11T11:48:59.536Z,100558.19
2023-04-11T11:51:26.618Z,100582.59
2023-04-11T11:54:08.637Z,100590.44
2023-04-11T11:56:36.750Z,100572.97
2023-04-11T11:59:05.016Z,100577.72
2023-04-11T12:01:36.513Z,100579.72
2023-04-11T12:04:06.545Z,100563.88
2023-04-11T12:06:33.686Z,100582.19
2023-04-11T12:09:10.967Z,100566.56
2023-04-11T12:11:38.864Z,100576.19
2023-04-11T12:14:05.964Z,100581.41
2023-04-11T12:16:32.922Z,100556.81
2023-04-11T12:19:02.152Z,100560.00
2023-04-11T12:21:29.020Z,100561.66
2023-04-11T12:23:55.648Z,100562.84
2023-04-11T12:26:23.952Z,100556.22
2023-04-11T12:28:51.105Z,100569.63
2023-04-11T12:31:18.040Z,100561.34
2023-04-11T12:33:44.661Z,100560.06
2023-04-11T12:36:11.848Z,100561.00
2023-04-11T12:38:38.485Z,100547.81
2023-04-11T12:41:30.384Z,100539.53
2023-04-11T12:43:52.620Z,100550.78
2023-04-11T12:46:19.410Z,100570.91
2023-04-11T12:48:45.948Z,100579.06
2023-04-11T12:51:12.408Z,100559.78
2023-04-11T12:53:38.877Z,100572.16
2023-04-11T12:56:05.849Z,100564.09
2023-04-11T12:58:33.077Z,100567.75
2023-04-11T13:00:59.544Z,100561.03
2023-04-11T13:03:27.254Z,100576.16
2023-04-11T13:05:54.071Z,100568.91
2023-04-11T13:08:20.843Z,100571.94
2023-04-11T13:10:47.244Z,100577.09
2023-04-11T13:15:43.728Z,100566.41
2023-04-11T13:18:10.332Z,100561.66
2023-04-11T13:20:37.082Z,100553.63
2023-04-11T13:23:03.512Z,100554.19
2023-04-11T13:25:29.965Z,100550.03
2023-04-11T13:27:56.624Z,100553.16
2023-04-11T13:30:23.112Z,100553.16
2023-04-11T13:32:49.663Z,100564.91
2023-04-11T13:35:16.193Z,100553.31
2023-04-11T13:37:42.631Z,100574.66
2023-04-11T13:40:11.479Z,100551.66
2023-04-11T13:42:37.986Z,100564.75
2023-04-11T13:45:04.756Z,100556.59
2023-04-11T13:47:31.282Z,100577.78
2023-04-11T13:49:57.918Z,100561.25
2023-04-11T13:52:24.430Z,100572.56
2023-04-11T13:54:51.567Z,100547.19
2023-04-11T13:57:18.010Z,100546.75
2023-04-11T13:59:44.440Z,100539.34
2023-04-11T14:02:11.076Z,100540.13
2023-04-11T14:04:37.547Z,100559.63
2023-04-11T14:07:04.136Z,100543.63
2023-04-11T14:09:30.723Z,100535.56
2023-04-11T14:11:57.709Z,100541.97
2023-04-11T14:14:24.279Z,100548.94
2023-04-11T14:16:51.363Z,100541.75
2023-04-11T14:19:17.857Z,100543.91
2023-04-11T14:21:44.470Z,100537.03
2023-04-11T14:24:11.480Z,100551.00
2023-04-11T14:26:37.991Z,100534.06
2023-04-11T14:29:04.871Z,100547.53
2023-04-11T14:31:31.834Z,100552.56
2023-04-11T14:33:58.765Z,100540.88
2023-04-11T14:36:26.857Z,100541.59
2023-04-11T14:38:53.364Z,100538.09
2023-04-11T14:41:19.830Z,100548.03
2023-04-11T14:43:46.322Z,100543.88
2023-04-11T14:46:12.946Z,100540.28
2023-04-11T14:48:39.462Z,100539.03
2023-04-11T14:51:06.031Z,100525.69
2023-04-11T14:53:32.715Z,100527.31
2023-04-11T14:55:59.127Z,100540.47
2023-04-11T14:58:25.636Z,100544.56
2023-04-11T15:00:52.175Z,100542.28
2023-04-11T15:03:18.787Z,100534.13
2023-04-11T15:05:45.424Z,100546.38
2023-04-11T15:08:11.961Z,100549.59
2023-04-11T15:10:38.466Z,100545.47
2023-04-11T15:13:05.372Z,100551.59
2023-04-11T15:15:31.911Z,100547.78
2023-04-11T15:18:24.540Z,100550.13
2023-04-11T15:20:52.479Z,100536.53
2023-04-11T15:23:20.014Z,100540.94
2023-04-11T15:25:56.833Z,100529.06
2023-04-11T15:28:24.768Z,100530.56
2023-04-11T15:30:53.304Z,100527.66
2023-04-11T15:33:22.172Z,100521.75
2023-04-11T15:35:48.642Z,100526.47
2023-04-11T15:38:16.058Z,100535.81
2023-04-11T15:40:42.911Z,100510.72
2023-04-11T15:43:09.538Z,100515.28
2023-04-11T15:45:39.322Z,100517.91
2023-04-11T15:48:06.494Z,100512.38
2023-04-11T15:50:33.013Z,100505.53
2023-04-11T15:52:59.467Z,100507.44
2023-04-11T15:55:25.953Z,100502.53
2023-04-11T15:57:52.457Z,100499.28
2023-04-11T16:00:22.089Z,100499.69
2023-04-11T16:02:49.778Z,100510.44
2023-04-11T16:05:17.080Z,100501.91
2023-04-11T16:07:43.713Z,100505.28
2023-04-11T16:10:10.473Z,100489.91
2023-04-11T16:12:37.491Z,100498.56
2023-04-11T16:15:07.792Z,100491.28
2023-04-11T16:17:34.314Z,100495.00
2023-04-11T16:20:00.973Z,100483.13
2023-04-11T16:22:27.559Z,100486.78
2023-04-11T16:24:56.093Z,100483.25
2023-04-11T16:27:22.673Z,100479.44
2023-04-11T16:29:49.134Z,100474.56
2023-04-11T16:32:15.929Z,100475.28
2023-04-11T16:34:42.323Z,100471.06
2023-04-11T16:37:08.753Z,100463.97
2023-04-11T16:39:35.437Z,100460.28
2023-04-11T16:42:02.309Z,100458.78
2023-04-11T16:44:28.709Z,100455.09
2023-04-11T16:46:55.195Z,100457.88
2023-04-11T16:49:22.745Z,100460.69
2023-04-11T16:51:49.215Z,100451.91
2023-04-11T16:54:16.229Z,100466.41
2023-04-11T16:56:43.218Z,100462.78
2023-04-11T16:59:12.203Z,100469.13
2023-04-11T17:01:38.774Z,100466.56
2023-04-11T17:04:05.322Z,100474.75
2023-04-11T17:06:32.266Z,100480.91
2023-04-11T17:08:58.889Z,100473.25
2023-04-11T17:11:25.635Z,100473.44
2023-04-11T17:13:54.476Z,100468.53
2023-04-11T17:16:21.538Z,100475.75
2023-04-11T17:18:48.186Z,100478.50
2023-04-11T17:21:14.660Z,100472.44
2023-04-11T17:23:43.450Z,100470.06
2023-04-11T17:26:10.988Z,100474.63
2023-04-11T17:28:38.529Z,100471.25
2023-04-11T17:31:13.087Z,100472.91
2023-04-11T17:33:39.952Z,100467.91
2023-04-11T17:36:07.001Z,100469.59
2023-04-11T17:38:33.586Z,100461.63
2023-04-11T17:41:11.198Z,100460.69
2023-04-11T17:43:41.291Z,100441.41
2023-04-11T17:46:08.823Z,100448.44
2023-04-11T17:48:35.871Z,100450.47
2023-04-11T17:51:04.097Z,100441.81
2023-04-11T17:53:30.851Z,100448.09
2023-04-11T17:55:57.525Z,100442.31
2023-04-11T17:58:23.953Z,100434.72
2023-04-11T18:00:56.653Z,100437.44
2023-04-11T18:03:25.155Z,100424.22
2023-04-11T18:05:52.437Z,100425.97
2023-04-11T18:08:18.940Z,100428.72
2023-04-11T18:10:45.885Z,100424.22
2023-04-11T18:13:12.426Z,100435.56
2023-04-11T18:15:38.948Z,100426.88
2023-04-11T18:18:09.562Z,100428.78
2023-04-11T18:20:36.119Z,100418.44
2023-04-11T18:23:03.087Z,100427.25
2023-04-11T18:25:30.116Z,100425.72
2023-04-11T18:27:56.725Z,100433.72
2023-04-11T18:30:23.246Z,100427.72
2023-04-11T18:32:52.197Z,100415.53
2023-04-11T18:35:19.158Z,100413.84
2023-04-11T18:37:45.780Z,100410.50
2023-04-11T18:40:14.058Z,100410.50
2023-04-11T18:42:48.851Z,100409.69
2023-04-11T18:45:21.756Z,100410.66
2023-04-11T18:47:48.498Z,100410.72
2023-04-11T18:50:15.598Z,100406.44
2023-04-11T18:52:43.346Z,100405.66
2023-04-11T18:55:10.726Z,100403.09
2023-04-11T18:57:38.641Z,100401.44
2023-04-11T19:00:18.659Z,100401.53
2023-04-11T19:02:46.637Z,100398.97
2023-04-11T19:05:14.332Z,100400.75
2023-04-11T19:07:42.440Z,100393.78
2023-04-11T19:10:10.327Z,100396.50
2023-04-11T19:12:37.255Z,100392.22
2023-04-11T19:15:06.557Z,100390.63
2023-04-11T19:17:35.022Z,100387.25
2023-04-11T19:20:02.451Z,100389.09
2023-04-11T19:22:28.983Z,100386.59
2023-04-11T19:24:55.413Z,100384.97
2023-04-11T19:27:23.300Z,100384.16
2023-04-11T19:29:49.858Z,100383.41
2023-04-11T19:32:17.653Z,100386.22
2023-04-11T19:34:44.177Z,100383.22
2023-04-11T19:37:10.690Z,100378.94
2023-04-11T19:39:38.984Z,100380.56
2023-04-11T19:42:07.079Z,100383.13
2023-04-11T19:44:33.582Z,100380.50
2023-04-11T19:47:00.077Z,100376.13
2023-04-11T19:49:26.581Z,100365.66
2023-04-11T19:51:53.040Z,100366.56
2023-04-11T19:54:19.524Z,100367.41
2023-04-11T19:56:49.017Z,100355.22
2023-04-11T19:59:16.092Z,100358.75
2023-04-11T20:01:42.675Z,100347.31
2023-04-11T20:04:09.829Z,100348.19
2023-04-11T20:06:36.480Z,100336.00
2023-04-11T20:09:04.143Z,100328.19
2023-04-11T20:11:32.775Z,100327.22
2023-04-11T20:13:59.339Z,100323.75
2023-04-11T20:16:26.432Z,100320.31
2023-04-11T20:18:53.665Z,100320.38
2023-04-11T20:21:20.146Z,100316.03
2023-04-11T20:23:46.586Z,100305.66
2023-04-11T20:26:13.203Z,100303.03
2023-04-11T20:28:39.760Z,100294.25
2023-04-11T20:31:07.012Z,100284.72
2023-04-11T20:33:33.519Z,100283.91
2023-04-11T20:36:00.076Z,100282.22
2023-04-11T20:38:27.374Z,100278.72
2023-04-11T20:40:53.816Z,100276.13
2023-04-11T20:43:20.239Z,100272.72
2023-04-11T20:45:46.757Z,100274.44
2023-04-11T20:48:13.650Z,100271.88
2023-04-11T20:50:41.839Z,100264.00
2023-04-11T20:53:08.614Z,100264.00
2023-04-11T20:55:35.159Z,100262.28
2023-04-11T20:58:01.694Z,100263.97
2023-04-11T21:00:28.175Z,100255.28
2023-04-11T21:02:54.863Z,100258.84
2023-04-11T21:05:22.318Z,100251.00
2023-04-11T21:07:48.876Z,100246.69
2023-04-11T21:10:15.732Z,100238.00
2023-04-11T21:12:43.124Z,100240.66
2023-04-11T21:15:10.101Z,100236.31
2023-04-11T21:17:37.348Z,100229.28
2023-04-11T21:20:17.756Z,100228.28
2023-04-11T21:22:44.758Z,100226.59
2023-04-11T21:25:11.211Z,100221.44
2023-04-11T21:27:37.708Z,100219.69
2023-04-11T21:30:04.632Z,100212.75
2023-04-11T21:32:31.236Z,100212.75
2023-04-11T21:34:57.633Z,100212.69
2023-04-11T21:37:24.202Z,100208.31
2023-04-11T21:39:50.934Z,100196.97
2023-04-11T21:42:17.458Z,100194.34
2023-04-11T21:44:43.881Z,100196.97
2023-04-11T21:47:10.394Z,100191.81
2023-04-11T21:49:36.902Z,100191.84
2023-04-11T21:52:03.414Z,100187.53
2023-04-11T21:54:29.870Z,100190.13
2023-04-11T21:56:57.286Z,100183.09
2023-04-11T21:59:23.714Z,100175.22
2023-04-11T22:01:50.326Z,100168.38
2023-04-11T22:04:17.671Z,100161.44
2023-04-11T22:06:47.317Z,100157.13
2023-04-11T22:09:20.380Z,100157.22
2023-04-11T22:11:46.914Z,100158.06
2023-04-11T22:14:16.278Z,100151.19
2023-04-11T22:16:49.314Z,100143.31
2023-04-11T22:19:19.415Z,100135.47
2023-04-11T22:21:50.636Z,100131.13
2023-04-11T22:24:17.151Z,100139.91
2023-04-11T22:26:48.832Z,100135.59
2023-04-11T22:29:18.865Z,100135.50
2023-04-11T22:31:46.984Z,100137.34
2023-04-11T22:34:14.182Z,100131.19
2023-04-11T22:36:40.667Z,100129.44
2023-04-11T22:39:08.036Z,100119.88
2023-04-11T22:41:35.895Z,100107.66
2023-04-11T22:44:02.966Z,100104.22
2023-04-11T22:46:31.629Z,100101.59
2023-04-11T22:48:58.100Z,100099.91
2023-04-11T22:51:25.001Z,100085.91
2023-04-11T22:53:51.441Z,100080.66
2023-04-11T22:56:18.033Z,100086.84
2023-04-11T22:58:45.778Z,100086.84
2023-04-11T23:01:13.919Z,100074.69
2023-04-11T23:03:41.380Z,100065.91
2023-04-11T23:06:08.235Z,100065.88
2023-04-11T23:08:34.756Z,100056.25
2023-04-11T23:11:01.290Z,100057.22
2023-04-11T23:13:27.711Z,100052.03
2023-04-11T23:15:54.839Z,100056.41
2023-04-11T23:18:21.424Z,100049.44
2023-04-11T23:20:49.411Z,100047.72
2023-04-11T23:23:16.564Z,100050.34
2023-04-11T23:25:43.112Z,100049.44
2023-04-11T23:28:09.728Z,100042.44
2023-04-11T23:30:36.364Z,100042.44
2023-04-11T23:33:04.266Z,100027.63
2023-04-11T23:35:31.699Z,100033.81
2023-04-11T23:37:59.969Z,100024.13
2023-04-11T23:40:26.620Z,100018.03
2023-04-11T23:42:53.351Z,100004.13
2023-04-11T23:45:22.437Z,100004.25
2023-04-11T23:47:50.342Z,100011.19
2023-04-11T23:50:17.741Z,100014.66
2023-04-11T23:52:44.857Z,100007.72
2023-04-11T23:55:13.111Z,100003.50
2023-04-11T23:57:39.680Z,100001.91
